sensor_id;sensor_type;location;lat;lon;timestamp;pressure;altitude;pressure_sealevel;temperature;humidity
41636;BME280;27623;51.966;4.602;2022-08-19T00:00:19;-19384.91;;;21.06;100.00
41636;BME280;27623;51.966;4.602;2022-08-19T00:02:46;-19383.22;;;21.00;100.00
41636;BME280;27623;51.966;4.602;2022-08-19T00:05:14;-19381.94;;;20.96;100.00
41636;BME280;27623;51.966;4.602;2022-08-19T00:07:41;-19383.63;;;21.02;100.00
41636;BME280;27623;51.966;4.602;2022-08-19T00:10:11;-19383.91;;;21.03;99.67
41636;BME280;27623;51.966;4.602;2022-08-19T00:12:37;-19381.94;;;20.96;100.00
41636;BME280;27623;51.966;4.602;2022-08-19T00:15:05;-19383.91;;;21.03;100.00
41636;BME280;27623;51.966;4.602;2022-08-19T00:17:38;-19381.50;;;20.94;100.00
41636;BME280;27623;51.966;4.602;2022-08-19T00:20:05;-19378.66;;;20.84;100.00
41636;BME280;27623;51.966;4.602;2022-08-19T00:22:30;-19377.38;;;20.79;100.00
41636;BME280;27623;51.966;4.602;2022-08-19T00:24:57;-19378.53;;;20.83;100.00
41636;BME280;27623;51.966;4.602;2022-08-19T00:27:23;-19380.94;;;20.92;100.00
41636;BME280;27623;51.966;4.602;2022-08-19T00:29:49;-19378.81;;;20.84;100.00
41636;BME280;27623;51.966;4.602;2022-08-19T00:32:14;-19377.38;;;20.79;100.00
41636;BME280;27623;51.966;4.602;2022-08-19T00:34:39;-19373.69;;;20.66;100.00
41636;BME280;27623;51.966;4.602;2022-08-19T00:37:05;-19376.25;;;20.75;100.00
41636;BME280;27623;51.966;4.602;2022-08-19T00:39:30;-19376.41;;;20.76;100.00
41636;BME280;27623;51.966;4.602;2022-08-19T00:41:56;-19374.97;;;20.71;100.00
41636;BME280;27623;51.966;4.602;2022-08-19T00:44:25;-19372.84;;;20.63;100.00
41636;BME280;27623;51.966;4.602;2022-08-19T00:46:53;-19371.56;;;20.58;100.00
41636;BME280;27623;51.966;4.602;2022-08-19T00:49:31;-19375.84;;;20.74;100.00
41636;BME280;27623;51.966;4.602;2022-08-19T00:52:14;-19375.25;;;20.72;100.00
41636;BME280;27623;51.966;4.602;2022-08-19T00:54:41;-19375.84;;;20.74;100.00
41636;BME280;27623;51.966;4.602;2022-08-19T00:57:10;-19376.41;;;20.76;100.00
41636;BME280;27623;51.966;4.602;2022-08-19T00:59:45;-19375.97;;;20.74;100.00
41636;BME280;27623;51.966;4.602;2022-08-19T01:02:11;-19373.28;;;20.65;100.00
41636;BME280;27623;51.966;4.602;2022-08-19T01:04:37;-19373.69;;;20.66;100.00
41636;BME280;27623;51.966;4.602;2022-08-19T01:07:03;-19372.13;;;20.61;100.00
41636;BME280;27623;51.966;4.602;2022-08-19T01:09:29;-19368.31;;;20.47;100.00
41636;BME280;27623;51.966;4.602;2022-08-19T01:11:56;-19371.44;;;20.58;100.00
41636;BME280;27623;51.966;4.602;2022-08-19T01:14:22;-19370.59;;;20.55;100.00
41636;BME280;27623;51.966;4.602;2022-08-19T01:16:49;-19368.88;;;20.49;100.00
41636;BME280;27623;51.966;4.602;2022-08-19T01:19:36;-19367.44;;;20.44;100.00
41636;BME280;27623;51.966;4.602;2022-08-19T01:22:12;-19367.75;;;20.45;100.00
41636;BME280;27623;51.966;4.602;2022-08-19T01:24:42;-19367.03;;;20.42;100.00
41636;BME280;27623;51.966;4.602;2022-08-19T01:27:07;-19363.75;;;20.31;100.00
41636;BME280;27623;51.966;4.602;2022-08-19T01:29:37;-19365.59;;;20.37;100.00
41636;BME280;27623;51.966;4.602;2022-08-19T01:32:03;-19368.03;;;20.46;100.00
41636;BME280;27623;51.966;4.602;2022-08-19T01:34:29;-19368.72;;;20.48;100.00
41636;BME280;27623;51.966;4.602;2022-08-19T01:36:55;-19368.72;;;20.48;100.00
41636;BME280;27623;51.966;4.602;2022-08-19T01:39:24;-19367.88;;;20.45;100.00
41636;BME280;27623;51.966;4.602;2022-08-19T01:41:50;-19366.59;;;20.41;100.00
41636;BME280;27623;51.966;4.602;2022-08-19T01:44:19;-19365.88;;;20.38;100.00
41636;BME280;27623;51.966;4.602;2022-08-19T01:46:48;-19363.91;;;20.31;100.00
41636;BME280;27623;51.966;4.602;2022-08-19T01:49:15;-19360.63;;;20.19;100.00
41636;BME280;27623;51.966;4.602;2022-08-19T01:51:41;-19362.47;;;20.26;100.00
41636;BME280;27623;51.966;4.602;2022-08-19T01:54:08;-19361.91;;;20.24;100.00
41636;BME280;27623;51.966;4.602;2022-08-19T01:56:35;-19364.47;;;20.33;100.00
41636;BME280;27623;51.966;4.602;2022-08-19T01:59:04;-19359.66;;;20.16;100.00
41636;BME280;27623;51.966;4.602;2022-08-19T02:01:31;-19361.63;;;20.23;100.00
41636;BME280;27623;51.966;4.602;2022-08-19T02:03:58;-19362.91;;;20.28;100.00
41636;BME280;27623;51.966;4.602;2022-08-19T02:06:26;-19361.06;;;20.21;100.00
41636;BME280;27623;51.966;4.602;2022-08-19T02:08:52;-19364.47;;;20.33;100.00
41636;BME280;27623;51.966;4.602;2022-08-19T02:11:27;-19363.06;;;20.28;100.00
41636;BME280;27623;51.966;4.602;2022-08-19T02:13:53;-19364.19;;;20.32;100.00
41636;BME280;27623;51.966;4.602;2022-08-19T02:16:19;-19359.50;;;20.15;100.00
41636;BME280;27623;51.966;4.602;2022-08-19T02:18:46;-19358.22;;;20.11;100.00
41636;BME280;27623;51.966;4.602;2022-08-19T02:21:17;-19358.22;;;20.11;100.00
41636;BME280;27623;51.966;4.602;2022-08-19T02:23:43;-19355.66;;;20.02;100.00
41636;BME280;27623;51.966;4.602;2022-08-19T02:26:09;-19354.81;;;19.99;100.00
41636;BME280;27623;51.966;4.602;2022-08-19T02:28:39;-19353.25;;;19.93;100.00
41636;BME280;27623;51.966;4.602;2022-08-19T02:31:10;-19356.22;;;20.04;100.00
41636;BME280;27623;51.966;4.602;2022-08-19T02:33:35;-19358.09;;;20.10;100.00
41636;BME280;27623;51.966;4.602;2022-08-19T02:36:04;-19356.22;;;20.04;100.00
41636;BME280;27623;51.966;4.602;2022-08-19T02:38:29;-19354.09;;;19.96;100.00
41636;BME280;27623;51.966;4.602;2022-08-19T02:41:08;-19354.25;;;19.97;100.00
41636;BME280;27623;51.966;4.602;2022-08-19T02:43:35;-19354.38;;;19.97;100.00
41636;BME280;27623;51.966;4.602;2022-08-19T02:46:21;-19353.81;;;19.95;100.00
41636;BME280;27623;51.966;4.602;2022-08-19T02:48:52;-19351.97;;;19.88;100.00
41636;BME280;27623;51.966;4.602;2022-08-19T02:51:22;-19351.25;;;19.86;100.00
41636;BME280;27623;51.966;4.602;2022-08-19T02:53:48;-19354.09;;;19.96;100.00
41636;BME280;27623;51.966;4.602;2022-08-19T02:56:14;-19354.81;;;19.99;100.00
41636;BME280;27623;51.966;4.602;2022-08-19T02:58:41;-19352.69;;;19.91;100.00
41636;BME280;27623;51.966;4.602;2022-08-19T03:01:08;-19354.66;;;19.98;100.00
41636;BME280;27623;51.966;4.602;2022-08-19T03:03:35;-19351.13;;;19.85;100.00
41636;BME280;27623;51.966;4.602;2022-08-19T03:06:10;-19349.41;;;19.79;100.00
41636;BME280;27623;51.966;4.602;2022-08-19T03:08:39;-19348.13;;;19.75;100.00
41636;BME280;27623;51.966;4.602;2022-08-19T03:11:05;-19349.28;;;19.79;100.00
41636;BME280;27623;51.966;4.602;2022-08-19T03:13:31;-19347.72;;;19.73;100.00
41636;BME280;27623;51.966;4.602;2022-08-19T03:15:57;-19347.00;;;19.71;100.00
41636;BME280;27623;51.966;4.602;2022-08-19T03:18:22;-19350.69;;;19.84;100.00
41636;BME280;27623;51.966;4.602;2022-08-19T03:20:49;-19350.13;;;19.82;100.00
41636;BME280;27623;51.966;4.602;2022-08-19T03:23:16;-19349.84;;;19.81;100.00
41636;BME280;27623;51.966;4.602;2022-08-19T03:25:44;-19351.41;;;19.86;100.00
41636;BME280;27623;51.966;4.602;2022-08-19T03:28:11;-19343.44;;;19.58;100.00
41636;BME280;27623;51.966;4.602;2022-08-19T03:30:39;-19343.59;;;19.59;100.00
41636;BME280;27623;51.966;4.602;2022-08-19T03:33:10;-19346.56;;;19.69;100.00
41636;BME280;27623;51.966;4.602;2022-08-19T03:35:37;-19346.16;;;19.68;100.00
41636;BME280;27623;51.966;4.602;2022-08-19T03:38:05;-19345.28;;;19.65;100.00
41636;BME280;27623;51.966;4.602;2022-08-19T03:40:32;-19345.00;;;19.64;100.00
41636;BME280;27623;51.966;4.602;2022-08-19T03:43:01;-19347.16;;;19.71;100.00
41636;BME280;27623;51.966;4.602;2022-08-19T03:45:27;-19346.16;;;19.68;100.00
41636;BME280;27623;51.966;4.602;2022-08-19T03:47:53;-19346.28;;;19.68;100.00
41636;BME280;27623;51.966;4.602;2022-08-19T03:50:18;-19342.03;;;19.53;100.00
41636;BME280;27623;51.966;4.602;2022-08-19T03:52:51;-19343.59;;;19.59;100.00
41636;BME280;27623;51.966;4.602;2022-08-19T03:55:18;-19345.00;;;19.64;100.00
41636;BME280;27623;51.966;4.602;2022-08-19T03:57:44;-19345.88;;;19.67;100.00
41636;BME280;27623;51.966;4.602;2022-08-19T04:00:11;-19347.00;;;19.71;100.00
41636;BME280;27623;51.966;4.602;2022-08-19T04:02:37;-19343.03;;;19.56;100.00
41636;BME280;27623;51.966;4.602;2022-08-19T04:05:02;-19341.03;;;19.49;100.00
41636;BME280;27623;51.966;4.602;2022-08-19T04:07:28;-19339.75;;;19.45;100.00
41636;BME280;27623;51.966;4.602;2022-08-19T04:09:54;-19341.75;;;19.52;100.00
41636;BME280;27623;51.966;4.602;2022-08-19T04:12:19;-19339.91;;;19.45;100.00
41636;BME280;27623;51.966;4.602;2022-08-19T04:14:45;-19342.44;;;19.54;100.00
41636;BME280;27623;51.966;4.602;2022-08-19T04:17:12;-19344.44;;;19.62;100.00
41636;BME280;27623;51.966;4.602;2022-08-19T04:19:41;-19345.16;;;19.64;100.00
41636;BME280;27623;51.966;4.602;2022-08-19T04:22:08;-19345.44;;;19.65;100.00
41636;BME280;27623;51.966;4.602;2022-08-19T04:24:34;-19344.59;;;19.62;100.00
41636;BME280;27623;51.966;4.602;2022-08-19T04:27:00;-19342.88;;;19.56;100.00
41636;BME280;27623;51.966;4.602;2022-08-19T04:29:27;-19342.88;;;19.56;100.00
41636;BME280;27623;51.966;4.602;2022-08-19T04:31:54;-19343.03;;;19.56;100.00
41636;BME280;27623;51.966;4.602;2022-08-19T04:34:21;-19343.03;;;19.56;100.00
41636;BME280;27623;51.966;4.602;2022-08-19T04:36:47;-19343.16;;;19.57;100.00
41636;BME280;27623;51.966;4.602;2022-08-19T04:39:18;-19342.59;;;19.55;100.00
41636;BME280;27623;51.966;4.602;2022-08-19T04:41:44;-19342.31;;;19.54;100.00
41636;BME280;27623;51.966;4.602;2022-08-19T04:44:32;-19342.59;;;19.55;100.00
41636;BME280;27623;51.966;4.602;2022-08-19T04:46:59;-19343.03;;;19.56;100.00
41636;BME280;27623;51.966;4.602;2022-08-19T04:49:25;-19342.75;;;19.55;100.00
41636;BME280;27623;51.966;4.602;2022-08-19T04:51:52;-19340.31;;;19.47;100.00
41636;BME280;27623;51.966;4.602;2022-08-19T04:54:19;-19341.19;;;19.50;100.00
41636;BME280;27623;51.966;4.602;2022-08-19T04:56:48;-19341.19;;;19.50;100.00
41636;BME280;27623;51.966;4.602;2022-08-19T04:59:15;-19344.44;;;19.62;100.00
41636;BME280;27623;51.966;4.602;2022-08-19T05:01:44;-19341.59;;;19.51;100.00
41636;BME280;27623;51.966;4.602;2022-08-19T05:04:17;-19344.44;;;19.62;100.00
41636;BME280;27623;51.966;4.602;2022-08-19T05:06:43;-19345.59;;;19.66;100.00
41636;BME280;27623;51.966;4.602;2022-08-19T05:09:08;-19345.72;;;19.66;100.00
41636;BME280;27623;51.966;4.602;2022-08-19T05:11:36;-19346.56;;;19.69;100.00
41636;BME280;27623;51.966;4.602;2022-08-19T05:14:08;-19346.28;;;19.68;100.00
41636;BME280;27623;51.966;4.602;2022-08-19T05:16:34;-19347.84;;;19.74;100.00
41636;BME280;27623;51.966;4.602;2022-08-19T05:18:59;-19348.28;;;19.75;100.00
41636;BME280;27623;51.966;4.602;2022-08-19T05:21:44;-19350.28;;;19.82;100.00
41636;BME280;27623;51.966;4.602;2022-08-19T05:24:28;-19350.84;;;19.84;100.00
41636;BME280;27623;51.966;4.602;2022-08-19T05:26:55;-19351.53;;;19.87;100.00
41636;BME280;27623;51.966;4.602;2022-08-19T05:29:24;-19349.84;;;19.81;100.00
41636;BME280;27623;51.966;4.602;2022-08-19T05:31:51;-19351.97;;;19.88;100.00
41636;BME280;27623;51.966;4.602;2022-08-19T05:34:18;-19351.84;;;19.88;100.00
41636;BME280;27623;51.966;4.602;2022-08-19T05:36:47;-19352.13;;;19.89;100.00
41636;BME280;27623;51.966;4.602;2022-08-19T05:39:16;-19352.53;;;19.90;100.00
41636;BME280;27623;51.966;4.602;2022-08-19T05:41:46;-19351.97;;;19.88;100.00
41636;BME280;27623;51.966;4.602;2022-08-19T05:44:12;-19352.69;;;19.91;100.00
41636;BME280;27623;51.966;4.602;2022-08-19T05:46:39;-19352.69;;;19.91;100.00
41636;BME280;27623;51.966;4.602;2022-08-19T05:49:09;-19351.97;;;19.88;100.00
41636;BME280;27623;51.966;4.602;2022-08-19T05:51:36;-19349.97;;;19.81;100.00
41636;BME280;27623;51.966;4.602;2022-08-19T05:54:03;-19351.41;;;19.86;100.00
41636;BME280;27623;51.966;4.602;2022-08-19T05:56:29;-19353.81;;;19.95;100.00
41636;BME280;27623;51.966;4.602;2022-08-19T05:58:56;-19353.13;;;19.93;100.00
41636;BME280;27623;51.966;4.602;2022-08-19T06:01:22;-19353.81;;;19.95;100.00
41636;BME280;27623;51.966;4.602;2022-08-19T06:03:47;-19355.38;;;20.01;100.00
41636;BME280;27623;51.966;4.602;2022-08-19T06:06:34;-19356.94;;;20.06;100.00
41636;BME280;27623;51.966;4.602;2022-08-19T06:09:04;-19354.94;;;19.99;100.00
41636;BME280;27623;51.966;4.602;2022-08-19T06:14:05;-19353.69;;;19.95;100.00
41636;BME280;27623;51.966;4.602;2022-08-19T06:16:35;-19353.69;;;19.95;100.00
41636;BME280;27623;51.966;4.602;2022-08-19T06:19:03;-19353.53;;;19.94;100.00
41636;BME280;27623;51.966;4.602;2022-08-19T06:21:29;-19350.13;;;19.82;100.00
41636;BME280;27623;51.966;4.602;2022-08-19T06:23:56;-19348.00;;;19.74;100.00
41636;BME280;27623;51.966;4.602;2022-08-19T06:26:22;-19346.72;;;19.70;100.00
41636;BME280;27623;51.966;4.602;2022-08-19T06:28:49;-19346.28;;;19.68;100.00
41636;BME280;27623;51.966;4.602;2022-08-19T06:31:17;-19348.69;;;19.77;100.00
41636;BME280;27623;51.966;4.602;2022-08-19T06:33:44;-19350.69;;;19.84;100.00
41636;BME280;27623;51.966;4.602;2022-08-19T06:36:18;-19349.28;;;19.79;100.00
41636;BME280;27623;51.966;4.602;2022-08-19T06:38:44;-19349.69;;;19.80;100.00
41636;BME280;27623;51.966;4.602;2022-08-19T06:41:09;-19352.13;;;19.89;100.00
41636;BME280;27623;51.966;4.602;2022-08-19T06:43:38;-19351.53;;;19.87;100.00
41636;BME280;27623;51.966;4.602;2022-08-19T06:46:11;-19352.41;;;19.90;100.00
41636;BME280;27623;51.966;4.602;2022-08-19T06:48:39;-19351.41;;;19.86;100.00
41636;BME280;27623;51.966;4.602;2022-08-19T06:51:05;-19356.22;;;20.04;100.00
41636;BME280;27623;51.966;4.602;2022-08-19T06:53:31;-19358.38;;;20.11;100.00
41636;BME280;27623;51.966;4.602;2022-08-19T06:55:57;-19360.50;;;20.19;100.00
41636;BME280;27623;51.966;4.602;2022-08-19T06:58:27;-19363.06;;;20.28;100.00
41636;BME280;27623;51.966;4.602;2022-08-19T07:01:01;-19365.47;;;20.37;100.00
41636;BME280;27623;51.966;4.602;2022-08-19T07:03:31;-19361.19;;;20.21;100.00
41636;BME280;27623;51.966;4.602;2022-08-19T07:06:02;-19362.34;;;20.25;100.00
41636;BME280;27623;51.966;4.602;2022-08-19T07:08:27;-19363.75;;;20.31;100.00
41636;BME280;27623;51.966;4.602;2022-08-19T07:10:52;-19365.75;;;20.38;100.00
41636;BME280;27623;51.966;4.602;2022-08-19T07:13:21;-19367.59;;;20.44;100.00
41636;BME280;27623;51.966;4.602;2022-08-19T07:15:48;-19368.88;;;20.49;100.00
41636;BME280;27623;51.966;4.602;2022-08-19T07:18:14;-19369.59;;;20.51;100.00
41636;BME280;27623;51.966;4.602;2022-08-19T07:20:40;-19371.44;;;20.58;100.00
41636;BME280;27623;51.966;4.602;2022-08-19T07:23:06;-19369.72;;;20.52;100.00
41636;BME280;27623;51.966;4.602;2022-08-19T07:25:32;-19372.13;;;20.61;100.00
41636;BME280;27623;51.966;4.602;2022-08-19T07:27:57;-19374.28;;;20.68;100.00
41636;BME280;27623;51.966;4.602;2022-08-19T07:30:22;-19379.53;;;20.87;100.00
41636;BME280;27623;51.966;4.602;2022-08-19T07:32:49;-19377.81;;;20.81;100.00
41636;BME280;27623;51.966;4.602;2022-08-19T07:35:16;-19378.94;;;20.85;100.00
41636;BME280;27623;51.966;4.602;2022-08-19T07:37:44;-19379.66;;;20.87;100.00
41636;BME280;27623;51.966;4.602;2022-08-19T07:40:10;-19381.09;;;20.92;100.00
41636;BME280;27623;51.966;4.602;2022-08-19T07:42:36;-19379.38;;;20.86;100.00
41636;BME280;27623;51.966;4.602;2022-08-19T07:45:02;-19381.78;;;20.95;100.00
41636;BME280;27623;51.966;4.602;2022-08-19T07:47:27;-19382.50;;;20.98;100.00
41636;BME280;27623;51.966;4.602;2022-08-19T07:49:53;-19382.66;;;20.98;100.00
41636;BME280;27623;51.966;4.602;2022-08-19T07:52:18;-19382.06;;;20.96;100.00
41636;BME280;27623;51.966;4.602;2022-08-19T07:54:45;-19378.53;;;20.83;100.00
41636;BME280;27623;51.966;4.602;2022-08-19T07:57:13;-19379.81;;;20.88;100.00
41636;BME280;27623;51.966;4.602;2022-08-19T07:59:38;-19378.94;;;20.85;100.00
41636;BME280;27623;51.966;4.602;2022-08-19T08:02:04;-19380.09;;;20.89;100.00
41636;BME280;27623;51.966;4.602;2022-08-19T08:04:32;-19381.38;;;20.93;100.00
41636;BME280;27623;51.966;4.602;2022-08-19T08:07:16;-19381.22;;;20.93;100.00
41636;BME280;27623;51.966;4.602;2022-08-19T08:10:20;-19381.22;;;20.93;100.00
41636;BME280;27623;51.966;4.602;2022-08-19T08:12:46;-19379.22;;;20.86;100.00
41636;BME280;27623;51.966;4.602;2022-08-19T08:15:15;-19375.97;;;20.74;100.00
41636;BME280;27623;51.966;4.602;2022-08-19T08:17:42;-19375.97;;;20.74;100.00
41636;BME280;27623;51.966;4.602;2022-08-19T08:20:08;-19375.41;;;20.72;100.00
41636;BME280;27623;51.966;4.602;2022-08-19T08:22:34;-19373.69;;;20.66;100.00
41636;BME280;27623;51.966;4.602;2022-08-19T08:25:21;-19375.84;;;20.74;100.00
41636;BME280;27623;51.966;4.602;2022-08-19T08:27:48;-19378.66;;;20.84;100.00
41636;BME280;27623;51.966;4.602;2022-08-19T08:30:23;-19379.09;;;20.85;100.00
41636;BME280;27623;51.966;4.602;2022-08-19T08:32:49;-19384.34;;;21.04;100.00
41636;BME280;27623;51.966;4.602;2022-08-19T08:35:20;-19389.59;;;21.23;100.00
41636;BME280;27623;51.966;4.602;2022-08-19T08:37:47;-19388.88;;;21.20;100.00
41636;BME280;27623;51.966;4.602;2022-08-19T08:40:39;-19390.31;;;21.25;100.00
41636;BME280;27623;51.966;4.602;2022-08-19T08:43:20;-19388.88;;;21.20;100.00
41636;BME280;27623;51.966;4.602;2022-08-19T08:45:55;-19392.00;;;21.32;100.00
41636;BME280;27623;51.966;4.602;2022-08-19T08:51:29;-19404.78;;;21.77;100.00
41636;BME280;27623;51.966;4.602;2022-08-19T08:53:58;-19403.34;;;21.72;100.00
41636;BME280;27623;51.966;4.602;2022-08-19T08:56:24;-19403.34;;;21.72;100.00
41636;BME280;27623;51.966;4.602;2022-08-19T08:59:12;-19400.25;;;21.61;100.00
41636;BME280;27623;51.966;4.602;2022-08-19T09:01:42;-19399.94;;;21.60;100.00
41636;BME280;27623;51.966;4.602;2022-08-19T09:04:09;-19400.09;;;21.60;100.00
41636;BME280;27623;51.966;4.602;2022-08-19T09:06:42;-19408.47;;;21.90;100.00
41636;BME280;27623;51.966;4.602;2022-08-19T09:09:25;-19409.31;;;21.93;100.00
41636;BME280;27623;51.966;4.602;2022-08-19T09:14:50;-19414.00;;;22.10;100.00
41636;BME280;27623;51.966;4.602;2022-08-19T09:17:21;-19418.09;;;22.25;100.00
41636;BME280;27623;51.966;4.602;2022-08-19T09:20:21;-19423.50;;;22.44;100.00
41636;BME280;27623;51.966;4.602;2022-08-19T09:22:47;-19429.31;;;22.65;100.00
41636;BME280;27623;51.966;4.602;2022-08-19T09:25:17;-19427.03;;;22.57;100.00
41636;BME280;27623;51.966;4.602;2022-08-19T09:27:44;-19430.28;;;22.69;100.00
41636;BME280;27623;51.966;4.602;2022-08-19T09:30:16;-19434.53;;;22.84;100.00
41636;BME280;27623;51.966;4.602;2022-08-19T09:32:43;-19433.56;;;22.80;99.69
41636;BME280;27623;51.966;4.602;2022-08-19T09:35:11;-19436.81;;;22.92;98.99
41636;BME280;27623;51.966;4.602;2022-08-19T09:37:37;-19433.69;;;22.81;100.00
41636;BME280;27623;51.966;4.602;2022-08-19T09:40:04;-19438.09;;;22.96;99.81
41636;BME280;27623;51.966;4.602;2022-08-19T09:42:32;-19434.25;;;22.83;98.53
41636;BME280;27623;51.966;4.602;2022-08-19T09:44:59;-19431.56;;;22.73;99.22
41636;BME280;27623;51.966;4.602;2022-08-19T09:47:27;-19431.13;;;22.72;100.00
41636;BME280;27623;51.966;4.602;2022-08-19T09:49:52;-19422.91;;;22.42;100.00
41636;BME280;27623;51.966;4.602;2022-08-19T09:52:18;-19419.66;;;22.31;100.00
41636;BME280;27623;51.966;4.602;2022-08-19T09:54:43;-19419.38;;;22.29;100.00
41636;BME280;27623;51.966;4.602;2022-08-19T09:57:09;-19419.22;;;22.29;100.00
41636;BME280;27623;51.966;4.602;2022-08-19T09:59:35;-19418.81;;;22.27;100.00
41636;BME280;27623;51.966;4.602;2022-08-19T10:02:00;-19417.97;;;22.24;100.00
41636;BME280;27623;51.966;4.602;2022-08-19T10:04:26;-19418.53;;;22.26;100.00
41636;BME280;27623;51.966;4.602;2022-08-19T10:07:11;-19419.94;;;22.32;100.00
41636;BME280;27623;51.966;4.602;2022-08-19T10:09:37;-19423.50;;;22.44;100.00
41636;BME280;27623;51.966;4.602;2022-08-19T10:12:04;-19424.63;;;22.48;100.00
41636;BME280;27623;51.966;4.602;2022-08-19T10:14:30;-19427.47;;;22.58;100.00
41636;BME280;27623;51.966;4.602;2022-08-19T10:16:56;-19431.84;;;22.74;100.00
41636;BME280;27623;51.966;4.602;2022-08-19T10:19:21;-19433.41;;;22.80;100.00
41636;BME280;27623;51.966;4.602;2022-08-19T10:21:49;-19435.38;;;22.87;100.00
41636;BME280;27623;51.966;4.602;2022-08-19T10:24:15;-19439.50;;;23.02;100.00
41636;BME280;27623;51.966;4.602;2022-08-19T10:26:41;-19440.34;;;23.05;100.00
41636;BME280;27623;51.966;4.602;2022-08-19T10:29:10;-19437.38;;;22.94;99.94
41636;BME280;27623;51.966;4.602;2022-08-19T10:31:37;-19436.38;;;22.90;100.00
41636;BME280;27623;51.966;4.602;2022-08-19T10:34:02;-19438.66;;;22.99;99.48
41636;BME280;27623;51.966;4.602;2022-08-19T10:36:33;-19436.38;;;22.90;97.58
41636;BME280;27623;51.966;4.602;2022-08-19T10:39:04;-19438.09;;;22.96;98.78
41636;BME280;27623;51.966;4.602;2022-08-19T10:41:32;-19442.34;;;23.12;98.35
41636;BME280;27623;51.966;4.602;2022-08-19T10:44:02;-19445.31;;;23.22;96.40
41636;BME280;27623;51.966;4.602;2022-08-19T10:46:29;-19450.81;;;23.42;94.91
41636;BME280;27623;51.966;4.602;2022-08-19T10:48:58;-19463.72;;;23.88;90.96
41636;BME280;27623;51.966;4.602;2022-08-19T10:51:25;-19471.06;;;24.15;88.82
41636;BME280;27623;51.966;4.602;2022-08-19T10:54:09;-19469.22;;;24.08;85.95
41636;BME280;27623;51.966;4.602;2022-08-19T10:56:34;-19468.53;;;24.06;87.74
41636;BME280;27623;51.966;4.602;2022-08-19T10:59:23;-19473.63;;;24.24;86.80
41636;BME280;27623;51.966;4.602;2022-08-19T11:01:51;-19475.19;;;24.29;86.38
41636;BME280;27623;51.966;4.602;2022-08-19T11:04:18;-19473.34;;;24.23;86.74
41636;BME280;27623;51.966;4.602;2022-08-19T11:06:48;-19470.34;;;24.12;86.14
41636;BME280;27623;51.966;4.602;2022-08-19T11:09:15;-19462.44;;;23.84;86.59
41636;BME280;27623;51.966;4.602;2022-08-19T11:11:42;-19459.88;;;23.75;87.77
41636;BME280;27623;51.966;4.602;2022-08-19T11:14:16;-19456.06;;;23.61;88.30
41636;BME280;27623;51.966;4.602;2022-08-19T11:16:43;-19452.94;;;23.50;89.57
41636;BME280;27623;51.966;4.602;2022-08-19T11:19:11;-19450.41;;;23.41;90.43
41636;BME280;27623;51.966;4.602;2022-08-19T11:21:40;-19448.00;;;23.32;91.44
41636;BME280;27623;51.966;4.602;2022-08-19T11:24:12;-19447.44;;;23.30;91.48
41636;BME280;27623;51.966;4.602;2022-08-19T11:26:39;-19448.00;;;23.32;92.16
41636;BME280;27623;51.966;4.602;2022-08-19T11:29:07;-19448.97;;;23.36;91.12
41636;BME280;27623;51.966;4.602;2022-08-19T11:31:43;-19448.28;;;23.33;91.03
41636;BME280;27623;51.966;4.602;2022-08-19T11:34:12;-19451.13;;;23.43;91.32
41636;BME280;27623;51.966;4.602;2022-08-19T11:36:41;-19455.50;;;23.59;89.93
41636;BME280;27623;51.966;4.602;2022-08-19T11:39:09;-19451.69;;;23.45;89.91
41636;BME280;27623;51.966;4.602;2022-08-19T11:41:35;-19454.78;;;23.56;89.91
41636;BME280;27623;51.966;4.602;2022-08-19T11:44:02;-19457.19;;;23.65;89.69
41636;BME280;27623;51.966;4.602;2022-08-19T11:46:28;-19456.63;;;23.63;89.09
41636;BME280;27623;51.966;4.602;2022-08-19T11:48:58;-19457.50;;;23.66;88.98
41636;BME280;27623;51.966;4.602;2022-08-19T11:51:25;-19458.63;;;23.70;90.49
41636;BME280;27623;51.966;4.602;2022-08-19T11:53:51;-19458.47;;;23.70;91.08
41636;BME280;27623;51.966;4.602;2022-08-19T11:56:17;-19457.06;;;23.64;91.61
41636;BME280;27623;51.966;4.602;2022-08-19T11:58:44;-19456.63;;;23.63;91.80
41636;BME280;27623;51.966;4.602;2022-08-19T12:01:11;-19456.63;;;23.63;92.16
41636;BME280;27623;51.966;4.602;2022-08-19T12:03:38;-19456.34;;;23.62;92.50
41636;BME280;27623;51.966;4.602;2022-08-19T12:06:09;-19459.19;;;23.72;90.01
41636;BME280;27623;51.966;4.602;2022-08-19T12:08:35;-19459.31;;;23.73;91.16
41636;BME280;27623;51.966;4.602;2022-08-19T12:11:01;-19459.75;;;23.74;91.98
41636;BME280;27623;51.966;4.602;2022-08-19T12:13:30;-19461.44;;;23.80;92.35
41636;BME280;27623;51.966;4.602;2022-08-19T12:15:58;-19463.16;;;23.86;90.43
41636;BME280;27623;51.966;4.602;2022-08-19T12:18:24;-19463.28;;;23.87;90.85
41636;BME280;27623;51.966;4.602;2022-08-19T12:20:51;-19464.97;;;23.93;90.53
41636;BME280;27623;51.966;4.602;2022-08-19T12:23:17;-19467.97;;;24.04;90.94
41636;BME280;27623;51.966;4.602;2022-08-19T12:25:46;-19469.81;;;24.10;90.09
41636;BME280;27623;51.966;4.602;2022-08-19T12:28:16;-19469.66;;;24.10;89.73
41636;BME280;27623;51.966;4.602;2022-08-19T12:30:41;-19466.97;;;24.00;89.97
41636;BME280;27623;51.966;4.602;2022-08-19T12:33:07;-19467.38;;;24.02;89.24
41636;BME280;27623;51.966;4.602;2022-08-19T12:35:33;-19464.69;;;23.92;89.30
41636;BME280;27623;51.966;4.602;2022-08-19T12:37:58;-19462.88;;;23.85;91.54
41636;BME280;27623;51.966;4.602;2022-08-19T12:40:26;-19458.91;;;23.71;92.35
41636;BME280;27623;51.966;4.602;2022-08-19T12:42:53;-19459.19;;;23.72;92.83
41636;BME280;27623;51.966;4.602;2022-08-19T12:45:20;-19460.59;;;23.77;93.37
41636;BME280;27623;51.966;4.602;2022-08-19T12:47:47;-19462.72;;;23.85;92.21
41636;BME280;27623;51.966;4.602;2022-08-19T12:50:13;-19466.41;;;23.98;92.81
41636;BME280;27623;51.966;4.602;2022-08-19T12:52:38;-19472.47;;;24.20;93.70
41636;BME280;27623;51.966;4.602;2022-08-19T12:55:06;-19480.97;;;24.50;89.35
41636;BME280;27623;51.966;4.602;2022-08-19T12:57:32;-19494.41;;;24.98;87.19